M I D A S
Marine Information and Data Acquisition System
Tripno 859 of the Zeeleeuw from 2005-03-09 07:26:14 to 2005-03-09 16:05:02
Back to CruiseResearch ActivitiesStationsMapUnderway DataData graphs

EquipmentUnitsComment
TimeDGPSUTC
LatitudeDGPSDM.mWGS84
LongitudeDGPSDM.mWGS84
HeadingGyrodeg 
SOGDGPSknotsSpeed over ground
COGDGPSdegCourse over ground
DepthEcho soundermeters200 kHz
Missing or incorrect values are displayed as -999
Navigation data collected by the RV Zeeleeuw from 2005-03-09 07:26:29 to 2005-03-09 16:16:56
Time Latitude Longitude Heading SOG COG Depth
2005-03-09 07:27:34 51°13.617 2°56.027 120 3.9 296 -999
2005-03-09 07:28:34 51°13.652 2°55.93 129.7 4.5 307 -999
2005-03-09 07:29:34 51°13.701 2°55.832 126.4 4.5 306 -999
2005-03-09 07:30:35 51°13.733 2°55.724 108.3 4.4 291 -999
2005-03-09 07:31:34 51°13.742 2°55.715 53.8 0.8 51 9.6
2005-03-09 07:32:34 51°13.746 2°55.703 14.1 3.3 6 5
2005-03-09 07:33:34 51°13.83 2°55.637 338.4 6.6 334 9.5
2005-03-09 07:34:34 51°13.946 2°55.553 339.9 8.1 336 9.4
2005-03-09 07:35:34 51°14.076 2°55.46 338.9 8.7 335 8.8
2005-03-09 07:36:34 51°14.212 2°55.328 326.7 10.1 323 9.7
2005-03-09 07:37:34 51°14.332 2°55.125 314.6 11.1 311 8.9
2005-03-09 07:38:34 51°14.47 2°54.894 324.6 12.9 318 9.2
2005-03-09 07:39:34 51°14.627 2°54.655 325.3 13 316 8.9
2005-03-09 07:40:34 51°14.793 2°54.44 331.9 12.8 324 8.9
2005-03-09 07:41:34 51°14.964 2°54.233 331 12.7 322 8.1
2005-03-09 07:42:34 51°15.134 2°54.037 336.2 12.8 329 8.4
2005-03-09 07:43:34 51°15.325 2°53.886 341 12.8 330 9
2005-03-09 07:44:34 51°15.509 2°53.718 340.9 12.7 329 9.6
2005-03-09 07:45:34 51°15.692 2°53.552 342.5 12.6 332 10.4
2005-03-09 07:46:34 51°15.874 2°53.392 341 12.4 331 10.8
2005-03-09 07:47:34 51°16.056 2°53.236 341.1 12.4 331 11.1
2005-03-09 07:48:34 51°16.237 2°53.085 341.6 12.3 333 11.3
2005-03-09 07:49:34 51°16.422 2°52.931 341.8 12.4 333 11.7
2005-03-09 07:50:34 51°16.605 2°52.778 341.1 12.2 333 10.9
2005-03-09 07:51:34 51°16.786 2°52.627 341.2 11.9 333 9.3
2005-03-09 07:52:34 51°16.965 2°52.473 340.8 12.4 330 9.2
2005-03-09 07:53:34 51°17.146 2°52.323 344.5 12.1 339 9.6
2005-03-09 07:54:34 51°17.338 2°52.278 6.6 11.8 358 9.9
2005-03-09 07:55:34 51°17.536 2°52.293 10.5 11.8 2 9.9
2005-03-09 07:56:34 51°17.729 2°52.327 14.5 11.7 7 10
2005-03-09 07:57:34 51°17.921 2°52.38 20.3 11.8 13 10
2005-03-09 07:58:33 51°18.106 2°52.461 27.8 11.6 24 10.3
2005-03-09 07:59:34 51°18.26 2°52.658 47.1 11.7 44 10.6
2005-03-09 08:00:34 51°18.356 2°52.933 65.2 12.1 63 10.9
2005-03-09 08:01:34 51°18.451 2°53.212 62.7 12.1 60 10.5
2005-03-09 08:02:34 51°18.55 2°53.491 63.1 11.8 62 10.6
2005-03-09 08:03:34 51°18.645 2°53.764 63.7 11.6 62 11
2005-03-09 08:04:34 51°18.738 2°54.036 62.3 11.8 60 11.1
2005-03-09 08:05:34 51°18.839 2°54.301 62.4 11.6 60 10.9
2005-03-09 08:06:34 51°18.937 2°54.56 58.9 11.3 58 11
2005-03-09 08:07:34 51°19.041 2°54.807 57.5 11.3 57 11.3
2005-03-09 08:08:34 51°19.143 2°55.059 59 11.4 58 11.2
2005-03-09 08:09:34 51°19.245 2°55.316 58.8 11.1 56 11.1
2005-03-09 08:10:34 51°19.348 2°55.57 59.3 11.6 58 11
2005-03-09 08:11:34 51°19.454 2°55.828 58.8 11.6 54 11
2005-03-09 08:12:34 51°19.561 2°56.085 59.6 11.8 57 11.1
2005-03-09 08:13:34 51°19.668 2°56.346 60.6 11.7 54 10.9
2005-03-09 08:14:34 51°19.776 2°56.612 58.7 11.8 56 11.3
2005-03-09 08:15:34 51°19.883 2°56.871 59.5 11.8 55 11.3
2005-03-09 08:16:34 51°19.989 2°57.132 59.5 11.7 53 11.3
2005-03-09 08:17:34 51°20.096 2°57.396 59.8 11.8 59 11.6
2005-03-09 08:18:34 51°20.201 2°57.656 59.8 11.8 58 11.4
2005-03-09 08:19:34 51°20.307 2°57.921 59.5 11.8 57 11
2005-03-09 08:20:34 51°20.418 2°58.19 59.6 12.2 56 11.1
2005-03-09 08:21:34 51°20.528 2°58.461 59.8 12.2 59 11.5
2005-03-09 08:22:34 51°20.64 2°58.728 58.9 12.2 59 11.2
2005-03-09 08:23:34 51°20.747 2°58.999 58.5 11.9 57 11.3
2005-03-09 08:24:34 51°20.859 2°59.266 59.5 12.1 54 11
2005-03-09 08:25:34 51°20.969 2°59.534 58.6 11.9 54 11.1
2005-03-09 08:26:34 51°21.079 2°59.8 59.2 12 57 10.9
2005-03-09 08:27:34 51°21.189 3°0.074 59.5 12.2 59 11.4
2005-03-09 08:28:34 51°21.299 3°0.345 60 12.2 55 11.4
2005-03-09 08:29:34 51°21.405 3°0.623 63.1 12.3 61 11.3
2005-03-09 08:30:34 51°21.499 3°0.915 65 12.4 63 11.1
2005-03-09 08:31:34 51°21.586 3°1.21 67 12.5 63 11.3
2005-03-09 08:32:34 51°21.678 3°1.506 66.1 12.4 67 11.7
2005-03-09 08:33:34 51°21.784 3°1.788 59.5 12.4 59 11.4
2005-03-09 08:34:34 51°21.907 3°2.043 51.8 12 47 11.1
2005-03-09 08:35:34 51°22.062 3°2.246 35.4 12.1 29 11.8
2005-03-09 08:36:34 51°22.229 3°2.418 36.1 11.7 32 11.6
2005-03-09 08:37:34 51°22.396 3°2.589 36.4 12.1 32 11.3
2005-03-09 08:38:34 51°22.571 3°2.73 17 11.6 12 11.5
2005-03-09 08:39:34 51°22.763 3°2.672 356.9 12.1 351 11.2
2005-03-09 08:40:34 51°22.961 3°2.605 352.8 12.3 346 11.5
2005-03-09 08:41:34 51°23.159 3°2.526 349.8 12.5 345 13.2
2005-03-09 08:42:34 51°23.356 3°2.439 351 12.4 345 13
2005-03-09 08:43:34 51°23.553 3°2.355 350.6 12.2 345 13.2
2005-03-09 08:44:34 51°23.746 3°2.279 355.6 11.8 352 14.3
2005-03-09 08:45:34 51°23.948 3°2.263 5.2 12.2 1 15.7
2005-03-09 08:46:34 51°24.141 3°2.337 23.8 11.7 24 16
2005-03-09 08:47:34 51°24.308 3°2.502 43.3 12.2 42 16.9
2005-03-09 08:48:34 51°24.444 3°2.754 53 12.6 51 18.7
2005-03-09 08:49:34 51°24.574 3°3.02 53.4 12.6 51 19.5
2005-03-09 08:50:34 51°24.694 3°3.302 57.8 12.8 60 18
2005-03-09 08:51:34 51°24.746 3°3.622 83.8 13 87 15.7
2005-03-09 08:52:34 51°24.76 3°3.96 82.7 12.8 82 14.7
2005-03-09 08:53:33 51°24.808 3°4.288 72 12.6 72 13.7
2005-03-09 08:54:34 51°24.909 3°4.588 60 12.8 59 14.2
2005-03-09 08:55:34 51°25.026 3°4.872 55.4 12.4 57 13.4
2005-03-09 08:56:34 51°25.143 3°5.143 55 12.5 53 12.4
2005-03-09 08:57:34 51°25.259 3°5.411 56.1 12.2 59 11.9
2005-03-09 08:58:34 51°25.373 3°5.675 54.5 12.1 56 11.4
2005-03-09 08:59:34 51°25.489 3°5.942 56.5 12.2 58 10.8
2005-03-09 09:00:34 51°25.607 3°6.21 56.5 12.2 54 10.3
2005-03-09 09:01:34 51°25.701 3°6.503 63.9 12.4 62 10.2
2005-03-09 09:02:34 51°25.8 3°6.796 60 12.5 64 10.2
2005-03-09 09:03:34 51°25.9 3°7.085 58.9 12.5 58 10.2
2005-03-09 09:04:34 51°25.994 3°7.374 62.4 12.3 63 9.1
2005-03-09 09:05:34 51°26.082 3°7.669 64.7 12.4 66 8.7
2005-03-09 09:06:34 51°26.174 3°7.97 61.8 12.5 61 9.6
2005-03-09 09:07:34 51°26.26 3°8.249 62.4 9.9 67 10.1
2005-03-09 09:08:34 51°26.302 3°8.373 34.1 3 50 10.1
2005-03-09 09:09:34 51°26.313 3°8.401 19.7 0.7 93 10.5
2005-03-09 09:10:34 51°26.301 3°8.421 29.4 1.2 153 10.2
2005-03-09 09:11:34 51°26.282 3°8.439 36 1.3 135 10.5
2005-03-09 09:12:34 51°26.277 3°8.463 28 1 80 10.5
2005-03-09 09:13:34 51°26.305 3°8.507 26.5 2.7 46 10.1
2005-03-09 09:14:34 51°26.335 3°8.577 41.6 3.6 59 10.8
2005-03-09 09:15:34 51°26.355 3°8.67 61.6 4 84 10.7
2005-03-09 09:16:34 51°26.352 3°8.769 77.9 3.9 100 10.7
2005-03-09 09:17:34 51°26.34 3°8.864 77.3 3.2 101 10.3
2005-03-09 09:18:34 51°26.336 3°8.933 56.9 2.4 93 10.4
2005-03-09 09:19:34 51°26.339 3°8.987 42.5 2.1 80 10.2
2005-03-09 09:20:34 51°26.364 3°9.041 28.2 2.9 41 10.3
2005-03-09 09:21:34 51°26.397 3°9.095 28.1 3.1 47 10.4
2005-03-09 09:22:34 51°26.438 3°9.147 24.4 3.3 35 10.1
2005-03-09 09:23:34 51°26.481 3°9.198 24.3 3.2 33 10.5
2005-03-09 09:24:34 51°26.523 3°9.251 26.1 3.1 42 10.7
2005-03-09 09:25:34 51°26.563 3°9.306 27.5 3.1 42 10.9
2005-03-09 09:26:34 51°26.6 3°9.366 30 3.1 49 10.8
2005-03-09 09:27:34 51°26.634 3°9.425 29.4 3 42 10.8
2005-03-09 09:28:34 51°26.671 3°9.483 28.8 3.1 41 10.8
2005-03-09 09:29:34 51°26.705 3°9.542 29.8 3 44 10.9
2005-03-09 09:30:34 51°26.739 3°9.604 29.4 3.1 44 10.7
2005-03-09 09:31:34 51°26.775 3°9.666 31.8 3.1 47 10.9
2005-03-09 09:32:34 51°26.81 3°9.732 31.8 3.5 49 10.9
2005-03-09 09:33:34 51°26.845 3°9.798 31.1 3.1 46 11
2005-03-09 09:34:34 51°26.88 3°9.865 30.8 3.3 46 10.6
2005-03-09 09:35:34 51°26.915 3°9.926 26.5 3.2 46 10.9
2005-03-09 09:36:34 51°26.946 3°9.981 27.1 2.9 50 10.9
2005-03-09 09:37:34 51°26.975 3°10.036 25.7 2.7 45 11
2005-03-09 09:38:34 51°27.004 3°10.09 25.9 2.8 47 11.1
2005-03-09 09:39:34 51°27.04 3°10.144 26.1 3 41 10.9
2005-03-09 09:40:34 51°27.075 3°10.201 25.6 3 47 11
2005-03-09 09:41:34 51°27.109 3°10.255 27 2.9 50 11.2
2005-03-09 09:42:34 51°27.142 3°10.312 25.8 3 47 10.9
2005-03-09 09:43:34 51°27.176 3°10.372 27.6 3.1 51 11
2005-03-09 09:44:34 51°27.211 3°10.431 26.8 3 44 10.9
2005-03-09 09:45:34 51°27.247 3°10.491 25.8 3 48 10.8
2005-03-09 09:46:34 51°27.281 3°10.548 25.5 3.2 51 10.9
2005-03-09 09:47:34 51°27.312 3°10.608 27.7 3.1 49 10.9
2005-03-09 09:48:34 51°27.342 3°10.671 27.8 2.9 58 11
2005-03-09 09:49:34 51°27.372 3°10.729 25.3 2.9 48 11.4
2005-03-09 09:50:34 51°27.402 3°10.793 34.4 3 65 10.7
2005-03-09 09:51:34 51°27.418 3°10.884 61 3.9 81 11.1
2005-03-09 09:52:34 51°27.416 3°11.001 83.7 4.4 92 10.6
2005-03-09 09:53:34 51°27.383 3°11.122 118.3 5.3 126 10.5
2005-03-09 09:54:34 51°27.326 3°11.21 141.4 4.5 140 10.2
2005-03-09 09:55:34 51°27.271 3°11.269 150.2 3.7 146 10.2
2005-03-09 09:56:34 51°27.22 3°11.318 157.2 3.8 150 10.2
2005-03-09 09:57:34 51°27.158 3°11.333 207.1 3.7 183 9.8
2005-03-09 09:58:34 51°27.11 3°11.298 249.9 3 216 10.1
2005-03-09 09:59:34 51°27.075 3°11.244 259.8 2.8 228 9.9
2005-03-09 10:00:34 51°27.042 3°11.181 258.8 3.3 230 10
2005-03-09 10:01:34 51°27.003 3°11.115 254.1 3.4 222 10.2
2005-03-09 10:02:34 51°26.958 3°11.05 249.7 3.6 227 10.3
2005-03-09 10:03:35 51°26.917 3°10.977 256.3 3.6 231 10.3
2005-03-09 10:04:34 51°26.884 3°10.904 263.4 3.3 236 10.2
2005-03-09 10:05:34 51°26.851 3°10.831 262 3.4 236 10.4
2005-03-09 10:06:34 51°26.822 3°10.766 264 2.8 237 10.3
2005-03-09 10:07:34 51°26.792 3°10.71 263.4 2.6 224 10.3
2005-03-09 10:08:34 51°26.765 3°10.659 266.8 2.5 232 10.7
2005-03-09 10:09:34 51°26.744 3°10.609 274.5 2.4 233 10.6
2005-03-09 10:10:34 51°26.725 3°10.558 276.4 2.2 235 10.7
2005-03-09 10:11:34 51°26.706 3°10.514 274.9 2.2 227 11
2005-03-09 10:12:35 51°26.686 3°10.469 275.9 2 243 10.8
2005-03-09 10:13:34 51°26.669 3°10.42 276 1.9 251 10.8
2005-03-09 10:14:34 51°26.653 3°10.368 278.7 2.2 248 11
2005-03-09 10:15:34 51°26.639 3°10.309 279.4 2.4 251 11.3
2005-03-09 10:16:34 51°26.626 3°10.249 279.1 2.5 248 11.2
2005-03-09 10:17:34 51°26.614 3°10.194 281.4 2 258 11.2
2005-03-09 10:18:34 51°26.603 3°10.128 282.3 2.6 253 11
2005-03-09 10:19:34 51°26.591 3°10.062 278.8 2.8 257 11.4
2005-03-09 10:20:34 51°26.58 3°9.99 279.7 2.7 258 11.9
2005-03-09 10:21:34 51°26.569 3°9.92 279.7 2.7 263 11.7
2005-03-09 10:22:33 51°26.559 3°9.847 280.3 2.9 258 11.8
2005-03-09 10:23:34 51°26.55 3°9.773 279.4 2.8 250 11.8
2005-03-09 10:24:34 51°26.538 3°9.702 278.9 2.6 252 11.8
2005-03-09 10:25:34 51°26.528 3°9.633 280.6 2.7 253 11.7
2005-03-09 10:26:34 51°26.517 3°9.568 280.1 2.6 248 11.9
2005-03-09 10:27:34 51°26.507 3°9.5 279.9 2.6 254 12
2005-03-09 10:28:34 51°26.498 3°9.43 281 2.7 263 11.8
2005-03-09 10:29:34 51°26.489 3°9.357 280.1 2.7 258 11.7
2005-03-09 10:30:35 51°26.479 3°9.291 280.6 2.4 256 11.8
2005-03-09 10:31:34 51°26.472 3°9.227 281.6 2.5 269 11.8
2005-03-09 10:32:34 51°26.464 3°9.16 278.3 2.6 264 12.3
2005-03-09 10:33:34 51°26.452 3°9.097 272.9 2.5 252 11.7
2005-03-09 10:34:34 51°26.445 3°9.036 283.4 2.2 269 11.8
2005-03-09 10:35:34 51°26.441 3°9.007 287 0.6 214 12.2
2005-03-09 10:36:34 51°26.432 3°9.014 283.8 0.9 131 12.1
2005-03-09 10:37:34 51°26.419 3°9.042 279.4 1.5 119 12
2005-03-09 10:38:34 51°26.405 3°9.082 270.1 1.8 113 12.1
2005-03-09 10:39:34 51°26.39 3°9.131 255.4 1.9 110 11.3
2005-03-09 10:40:34 51°26.376 3°9.183 241.6 2.2 114 11.7
2005-03-09 10:41:34 51°26.365 3°9.234 235.4 1.9 104 11.8
2005-03-09 10:42:34 51°26.353 3°9.288 225.4 1.9 108 11.5
2005-03-09 10:43:34 51°26.342 3°9.342 221 1.7 109 11.2
2005-03-09 10:44:34 51°26.322 3°9.386 205.7 2 141 11.4
2005-03-09 10:45:34 51°26.288 3°9.429 182.4 3 140 11.3
2005-03-09 10:46:34 51°26.255 3°9.492 154.3 3.2 123 11.5
2005-03-09 10:47:33 51°26.232 3°9.568 121.7 3.3 110 11.4
2005-03-09 10:48:34 51°26.219 3°9.655 91 3.2 97 11
2005-03-09 10:49:34 51°26.215 3°9.736 66 2.6 81 10.9
2005-03-09 10:50:34 51°26.217 3°9.808 49.4 2.7 90 11.4
2005-03-09 10:51:34 51°26.216 3°9.876 38.7 2.8 92 11.4
2005-03-09 10:52:34 51°26.218 3°9.941 27.1 2.3 88 11
2005-03-09 10:53:34 51°26.215 3°10.002 33.6 2.3 99 11.4
2005-03-09 10:54:34 51°26.206 3°10.062 45 2 97 11.5
2005-03-09 10:55:34 51°26.197 3°10.12 51.3 2.5 107 10.9
2005-03-09 10:56:34 51°26.203 3°10.229 76.4 7.1 85 11.1
2005-03-09 10:57:34 51°26.127 3°10.416 159.8 9.1 149 11.1
2005-03-09 10:58:34 51°25.963 3°10.506 173 11.7 159 10.4
2005-03-09 10:59:35 51°25.777 3°10.67 150.9 12.7 144 10
2005-03-09 11:00:34 51°25.653 3°10.963 124.5 14 116 10.1
2005-03-09 11:01:34 51°25.522 3°11.262 134.1 13.4 126 11.4
2005-03-09 11:02:34 51°25.401 3°11.574 124.1 13.8 120 12.3
2005-03-09 11:03:34 51°25.3 3°11.906 121.4 14.4 117 12.5
2005-03-09 11:04:34 51°25.209 3°12.255 116.5 14.2 115 13
2005-03-09 11:05:34 51°25.138 3°12.564 114.2 10.1 111 13.7
2005-03-09 11:06:34 51°25.097 3°12.789 119.7 8.2 111 14.4
2005-03-09 11:07:35 51°25.087 3°12.965 92.3 6 94 14.7
2005-03-09 11:08:34 51°25.086 3°13.093 91 4.5 92 14.7
2005-03-09 11:09:34 51°25.086 3°13.202 85.1 3.9 88 14.9
2005-03-09 11:10:34 51°25.089 3°13.316 85 4.6 88 15
2005-03-09 11:11:34 51°25.088 3°13.446 97.3 5 95 15.5
2005-03-09 11:12:34 51°25.082 3°13.577 95.1 4.9 98 15.8
2005-03-09 11:13:34 51°25.082 3°13.704 88.8 4.6 87 15.6
2005-03-09 11:14:34 51°25.079 3°13.826 97.8 4.6 97 15.4
2005-03-09 11:15:34 51°25.076 3°13.946 90.8 4.2 90 15.5
2005-03-09 11:16:34 51°25.074 3°14.052 95.7 4 92 15.8
2005-03-09 11:17:34 51°25.074 3°14.153 86 3.7 94 15.8
2005-03-09 11:18:34 51°25.075 3°14.251 91.3 3.6 95 16
2005-03-09 11:19:34 51°25.071 3°14.346 95.4 3.5 87 16.2
2005-03-09 11:20:34 51°25.073 3°14.442 79.8 3.6 92 16.8
2005-03-09 11:21:34 51°25.077 3°14.534 73.3 3.5 80 16.2
2005-03-09 11:22:34 51°25.08 3°14.625 73.6 3.6 90 16.5
2005-03-09 11:23:34 51°25.086 3°14.716 66.3 3.5 84 16.6
2005-03-09 11:24:34 51°25.092 3°14.806 60.7 3.3 82 16.4
2005-03-09 11:25:34 51°25.099 3°14.895 59.6 3.5 82 16.3
2005-03-09 11:26:34 51°25.107 3°14.985 56.1 3.5 89 16.3
2005-03-09 11:27:34 51°25.115 3°15.075 54.6 3.5 85 16.7
2005-03-09 11:28:34 51°25.124 3°15.165 52.6 3.4 84 16.4
2005-03-09 11:29:34 51°25.134 3°15.251 49.7 3.2 80 16.3
2005-03-09 11:30:34 51°25.145 3°15.341 49.3 3.6 82 16.2
2005-03-09 11:31:34 51°25.154 3°15.43 48 3.5 84 16.1
2005-03-09 11:32:34 51°25.164 3°15.515 47.6 3.3 79 16.3
2005-03-09 11:33:34 51°25.175 3°15.6 45.9 3.3 80 15.9
2005-03-09 11:34:34 51°25.185 3°15.684 47.4 3.4 79 15.9
2005-03-09 11:35:34 51°25.195 3°15.768 46.1 3 77 15.8
2005-03-09 11:36:34 51°25.206 3°15.853 45.3 3 73 15.4
2005-03-09 11:37:34 51°25.216 3°15.936 49.1 3.1 80 15.6
2005-03-09 11:38:34 51°25.225 3°16.021 50.2 3.2 78 15.5
2005-03-09 11:39:35 51°25.235 3°16.108 49.8 3.3 80 15
2005-03-09 11:40:34 51°25.246 3°16.194 49.2 3.2 77 14.9
2005-03-09 11:41:34 51°25.259 3°16.28 48.7 3.3 76 14.5
2005-03-09 11:42:34 51°25.272 3°16.366 48.9 3.4 77 14.5
2005-03-09 11:43:34 51°25.285 3°16.45 48.9 3.2 70 14.3
2005-03-09 11:44:34 51°25.298 3°16.534 49.8 3.4 77 14.1
2005-03-09 11:45:34 51°25.309 3°16.619 57 3.4 84 14
2005-03-09 11:46:35 51°25.318 3°16.706 69 3.4 89 13.9
2005-03-09 11:47:34 51°25.318 3°16.808 107.2 4.3 88 13.6
2005-03-09 11:48:34 51°25.286 3°16.905 173 3.6 139 13.9
2005-03-09 11:49:34 51°25.249 3°16.945 208.6 2.1 145 14.2
2005-03-09 11:50:34 51°25.223 3°16.968 238.9 1.8 196 14.5
2005-03-09 11:51:34 51°25.219 3°16.943 272.7 0.5 288 14.4
2005-03-09 11:52:34 51°25.216 3°16.948 267.5 0.7 132 14.5
2005-03-09 11:53:34 51°25.212 3°16.956 268.8 0.8 243 14.6
2005-03-09 11:54:34 51°25.212 3°16.895 276.1 2.9 277 14.5
2005-03-09 11:55:34 51°25.226 3°16.812 282 3 291 14.5
2005-03-09 11:56:34 51°25.241 3°16.737 284.6 3 289 14.4
2005-03-09 11:57:35 51°25.261 3°16.661 284.8 3.2 290 14.3
2005-03-09 11:58:34 51°25.271 3°16.587 275.3 2.9 272 14.3
2005-03-09 11:59:34 51°25.263 3°16.515 264 2.9 256 14.3
2005-03-09 12:00:34 51°25.251 3°16.44 264.7 3 261 14.6
2005-03-09 12:01:35 51°25.239 3°16.367 264.2 2.7 259 14.7
2005-03-09 12:02:34 51°25.231 3°16.295 267.3 2.8 258 14.7
2005-03-09 12:03:34 51°25.224 3°16.225 267.9 2.8 264 15.4
2005-03-09 12:04:34 51°25.218 3°16.155 268.1 2.6 265 15.5
2005-03-09 12:05:34 51°25.214 3°16.086 268.4 2.6 265 15.5
2005-03-09 12:06:34 51°25.211 3°16.018 269.5 2.9 263 15.7
2005-03-09 12:07:34 51°25.206 3°15.945 270.3 2.9 265 15.6
2005-03-09 12:08:34 51°25.203 3°15.871 270.4 3 263 15.8
2005-03-09 12:09:34 51°25.197 3°15.794 269.6 3 257 15.9
2005-03-09 12:10:34 51°25.192 3°15.715 269 3 267 16
2005-03-09 12:11:35 51°25.187 3°15.634 269.6 3.2 265 15.9
2005-03-09 12:12:34 51°25.182 3°15.559 270 2.8 268 16.1
2005-03-09 12:13:34 51°25.177 3°15.486 269.8 2.9 260 16.1
2005-03-09 12:14:34 51°25.171 3°15.416 269.2 2.7 266 16
2005-03-09 12:15:35 51°25.165 3°15.345 269.2 2.6 263 16.1
2005-03-09 12:16:34 51°25.16 3°15.279 269.9 2.6 267 16
2005-03-09 12:17:34 51°25.156 3°15.214 271.5 2.4 263 16.2
2005-03-09 12:18:34 51°25.155 3°15.149 273.8 2.5 270 16.3
2005-03-09 12:19:34 51°25.155 3°15.081 273.4 2.4 268 16.2
2005-03-09 12:20:34 51°25.154 3°15.011 272.1 2.8 274 16.2
2005-03-09 12:21:34 51°25.153 3°14.938 271.2 2.8 266 15.8
2005-03-09 12:22:34 51°25.15 3°14.868 272.3 2.8 270 16
2005-03-09 12:23:34 51°25.148 3°14.795 271.4 2.8 272 15.9
2005-03-09 12:24:34 51°25.146 3°14.723 271.5 2.7 267 16.1
2005-03-09 12:25:34 51°25.146 3°14.647 273.3 2.8 273 15.9
2005-03-09 12:26:34 51°25.146 3°14.568 272 3.1 266 15.9
2005-03-09 12:27:34 51°25.144 3°14.492 271.8 2.8 270 15.7
2005-03-09 12:28:34 51°25.143 3°14.418 272.9 2.7 269 15.6
2005-03-09 12:29:34 51°25.142 3°14.34 270.4 2.9 262 15.5
2005-03-09 12:30:34 51°25.14 3°14.261 273.6 3 272 15.5
2005-03-09 12:31:34 51°25.14 3°14.182 271.1 3 272 15.4
2005-03-09 12:32:35 51°25.147 3°14.1 283.9 3.2 283 15.4
2005-03-09 12:33:34 51°25.167 3°14.022 290.4 3.3 295 15.2
2005-03-09 12:34:34 51°25.192 3°13.947 296 3.2 306 15
2005-03-09 12:35:34 51°25.237 3°13.891 322.3 3.5 337 14.6
2005-03-09 12:36:34 51°25.293 3°13.882 348.3 3 6 13.9
2005-03-09 12:37:34 51°25.332 3°13.909 1.3 2.3 33 13.5
2005-03-09 12:38:34 51°25.356 3°13.942 3.5 1.6 48 13.3
2005-03-09 12:39:34 51°25.371 3°13.978 11 1.7 61 13.1
2005-03-09 12:40:34 51°25.381 3°14.013 19.6 1.5 70 13.1
2005-03-09 12:41:34 51°25.386 3°14.05 30.4 1.2 91 12.9
2005-03-09 12:42:34 51°25.387 3°14.084 46.6 1.2 87 13.1
2005-03-09 12:43:34 51°25.398 3°14.13 46.8 2.3 63 13
2005-03-09 12:44:35 51°25.424 3°14.184 30 2.3 44 12.4
2005-03-09 12:45:35 51°25.452 3°14.23 16.4 2.1 41 12.6
2005-03-09 12:46:34 51°25.476 3°14.264 359.8 2 44 12.3
2005-03-09 12:47:34 51°25.493 3°14.297 355.3 1.6 51 12.4
2005-03-09 12:48:34 51°25.513 3°14.323 339.8 1.9 35 12
2005-03-09 12:49:35 51°25.531 3°14.328 297.6 0.8 353 11.9
2005-03-09 12:50:34 51°25.535 3°14.322 250.6 0.5 192 11.9
2005-03-09 12:51:34 51°25.519 3°14.321 209.7 1.2 180 12
2005-03-09 12:52:34 51°25.501 3°14.335 201.2 1.4 133 12.2
2005-03-09 12:53:34 51°25.489 3°14.35 209.8 0.7 137 12.4
2005-03-09 12:54:34 51°25.484 3°14.367 217.8 1 115 12.5
2005-03-09 12:55:34 51°25.481 3°14.384 223.4 0.9 104 12.3
2005-03-09 12:56:34 51°25.479 3°14.405 224.1 0.9 102 12.2
2005-03-09 12:57:34 51°25.457 3°14.407 203.6 3.2 185 12.6
2005-03-09 12:58:34 51°25.334 3°14.469 168.8 10.8 161 13.6
2005-03-09 12:59:34 51°25.128 3°14.567 168.6 13.5 163 15.7
2005-03-09 13:00:34 51°24.914 3°14.673 169.2 13.4 159 18.6
2005-03-09 13:01:34 51°24.701 3°14.775 175.8 13 167 21.1
2005-03-09 13:02:34 51°24.488 3°14.878 165.9 13.3 159 20.8
2005-03-09 13:03:34 51°24.316 3°15.1 128.2 13.7 122 17.7
2005-03-09 13:04:34 51°24.21 3°15.439 123.3 13.9 120 14.8
2005-03-09 13:05:34 51°24.097 3°15.776 123.7 14.1 119 15.3
2005-03-09 13:06:34 51°24 3°16.129 117.8 14.4 111 15.3
2005-03-09 13:07:34 51°23.906 3°16.488 118.7 15.1 108 14.4
2005-03-09 13:08:34 51°23.81 3°16.843 120.7 14.3 116 13.9
2005-03-09 13:09:35 51°23.713 3°17.203 120.4 14.3 116 13.8
2005-03-09 13:10:34 51°23.63 3°17.559 111.2 15 101 13.4
2005-03-09 13:11:34 51°23.625 3°17.919 89.6 11.2 83 13.3
2005-03-09 13:12:34 51°23.665 3°18.107 63.3 6.3 68 13.8
2005-03-09 13:13:34 51°23.699 3°18.212 59 3.9 63 13.8
2005-03-09 13:14:34 51°23.721 3°18.293 60.1 3 73 14.5
2005-03-09 13:15:34 51°23.737 3°18.357 56.9 2.3 68 14.5
2005-03-09 13:16:34 51°23.748 3°18.411 53.6 2.1 74 14.6
2005-03-09 13:17:34 51°23.757 3°18.458 50.1 1.8 79 14.7
2005-03-09 13:18:34 51°23.776 3°18.532 66.9 4.9 71 14.9
2005-03-09 13:19:35 51°23.745 3°18.706 138 8.5 130 14.7
2005-03-09 13:20:34 51°23.61 3°18.815 170.9 9.7 165 13.7
2005-03-09 13:21:34 51°23.474 3°18.879 169.8 6.9 159 12.9
2005-03-09 13:22:35 51°23.409 3°18.862 227.5 2.8 217 12.8
2005-03-09 13:23:34 51°23.387 3°18.802 258.6 3.2 249 12.8
2005-03-09 13:24:34 51°23.371 3°18.71 260.5 3.8 254 12.7
2005-03-09 13:25:34 51°23.351 3°18.612 255.9 3.8 252 12.6
2005-03-09 13:26:34 51°23.333 3°18.515 263 3.7 256 12.7
2005-03-09 13:27:34 51°23.323 3°18.426 264.8 3.2 256 12.8
2005-03-09 13:28:34 51°23.317 3°18.342 269.4 3.1 267 12.7
2005-03-09 13:29:34 51°23.313 3°18.259 267.9 3.2 256 12.9
2005-03-09 13:30:34 51°23.306 3°18.176 267.3 3.2 265 12.4
2005-03-09 13:31:34 51°23.305 3°18.093 274.3 3.2 275 12.7
2005-03-09 13:32:34 51°23.309 3°18.01 276.5 3.1 275 12.5
2005-03-09 13:33:34 51°23.31 3°17.929 271.4 3.1 269 12.6
2005-03-09 13:34:34 51°23.307 3°17.847 268.3 3 264 12.4
2005-03-09 13:35:35 51°23.303 3°17.763 269.2 3.1 268 12.3
2005-03-09 13:36:35 51°23.299 3°17.681 269.2 3.2 267 12
2005-03-09 13:37:34 51°23.294 3°17.598 269 3 271 11.9
2005-03-09 13:38:35 51°23.291 3°17.513 269.4 3.2 265 11.9
2005-03-09 13:39:34 51°23.287 3°17.43 269.4 3.1 269 11.8
2005-03-09 13:40:34 51°23.284 3°17.347 270 3.1 269 11.8
2005-03-09 13:41:35 51°23.281 3°17.264 270.3 3.2 268 11.7
2005-03-09 13:42:34 51°23.278 3°17.181 269.6 3.1 268 11.6
2005-03-09 13:43:34 51°23.272 3°17.099 265 3.2 257 11.6
2005-03-09 13:44:35 51°23.262 3°17.013 263.4 3.2 255 11.6
2005-03-09 13:45:34 51°23.252 3°16.931 263 3.3 265 11.3
2005-03-09 13:46:34 51°23.24 3°16.848 262.3 3.2 261 11.3
2005-03-09 13:47:35 51°23.229 3°16.765 263.8 3.1 261 11.2
2005-03-09 13:48:34 51°23.221 3°16.683 267 3.2 262 11.1
2005-03-09 13:49:34 51°23.218 3°16.597 270.8 3.2 265 10.9
2005-03-09 13:50:35 51°23.216 3°16.511 271.2 3.2 267 10.8
2005-03-09 13:51:34 51°23.214 3°16.427 268.9 3.2 266 10.9
2005-03-09 13:52:34 51°23.211 3°16.342 270 3.2 270 10.9
2005-03-09 13:53:34 51°23.207 3°16.263 268 2.8 264 10.8
2005-03-09 13:54:34 51°23.202 3°16.184 268 2.8 260 10.8
2005-03-09 13:55:35 51°23.197 3°16.107 269.1 2.9 264 10.9
2005-03-09 13:56:35 51°23.186 3°16.025 259.2 3.3 251 11
2005-03-09 13:57:35 51°23.169 3°15.94 258.7 3.4 255 10.9
2005-03-09 13:58:34 51°23.157 3°15.856 264.7 3.3 260 11
2005-03-09 13:59:34 51°23.152 3°15.772 270 3.2 261 10.9
2005-03-09 14:00:34 51°23.15 3°15.691 272.9 3.1 268 11.1
2005-03-09 14:01:34 51°23.151 3°15.615 275.4 2.5 278 10.9
2005-03-09 14:02:34 51°23.153 3°15.569 278.7 1.3 280 10.9
2005-03-09 14:03:35 51°23.153 3°15.547 276.6 0.6 248 10.9
2005-03-09 14:04:34 51°23.152 3°15.54 273.2 0.1 38 11.2
2005-03-09 14:05:34 51°23.142 3°15.499 253.9 3 239 10.8
2005-03-09 14:06:34 51°23.127 3°15.417 263.9 3.3 265 11.1
2005-03-09 14:07:34 51°23.118 3°15.33 265.6 3.3 257 11
2005-03-09 14:08:34 51°23.101 3°15.243 252.4 3.5 241 11.1
2005-03-09 14:09:35 51°23.075 3°15.161 249.2 3.1 240 11.1
2005-03-09 14:10:34 51°23.052 3°15.094 249.2 2.8 243 11.1
2005-03-09 14:11:35 51°23.029 3°15.026 249.7 2.8 238 11.3
2005-03-09 14:12:35 51°23.009 3°14.958 254 2.9 243 11.4
2005-03-09 14:13:34 51°22.991 3°14.889 254.9 2.9 243 11.5
2005-03-09 14:14:35 51°22.973 3°14.819 255 2.9 244 11.7
2005-03-09 14:15:34 51°22.954 3°14.749 254.7 3 242 11.8
2005-03-09 14:16:34 51°22.936 3°14.677 255.2 2.9 248 11.7
2005-03-09 14:17:34 51°22.917 3°14.604 255.6 3 243 11.8
2005-03-09 14:18:34 51°22.899 3°14.529 254.4 3 252 11.7
2005-03-09 14:19:35 51°22.878 3°14.456 253.8 3 247 11.7
2005-03-09 14:20:34 51°22.858 3°14.386 253.5 2.9 246 12
2005-03-09 14:21:34 51°22.837 3°14.317 254.6 2.9 245 12.4
2005-03-09 14:22:34 51°22.82 3°14.249 258.2 2.8 251 12.1
2005-03-09 14:23:34 51°22.806 3°14.18 261.5 2.8 250 12.4
2005-03-09 14:24:35 51°22.792 3°14.11 259.5 2.8 251 12.4
2005-03-09 14:25:34 51°22.777 3°14.042 259.8 2.8 248 12.5
2005-03-09 14:26:35 51°22.761 3°13.97 259.4 2.8 249 12.5
2005-03-09 14:27:34 51°22.747 3°13.901 259.8 2.9 256 12.7
2005-03-09 14:28:34 51°22.73 3°13.831 258.5 2.8 242 12.8
2005-03-09 14:29:34 51°22.714 3°13.761 258.5 2.7 248 12.8
2005-03-09 14:30:34 51°22.698 3°13.694 258.9 2.7 251 13
2005-03-09 14:31:34 51°22.681 3°13.623 258.7 3.1 249 12.9
2005-03-09 14:32:35 51°22.662 3°13.538 258.3 3.5 254 13.2
2005-03-09 14:33:35 51°22.645 3°13.447 259.9 3.6 249 13.6
2005-03-09 14:34:35 51°22.629 3°13.36 263.6 3.5 253 13.8
2005-03-09 14:35:34 51°22.631 3°13.27 284.7 3.4 278 13.7
2005-03-09 14:36:34 51°22.667 3°13.216 337.6 2.5 348 14
2005-03-09 14:37:34 51°22.699 3°13.219 0.9 1.7 13 13.7
2005-03-09 14:38:34 51°22.718 3°13.241 16.8 1.3 45 13.7
2005-03-09 14:39:34 51°22.729 3°13.266 24.8 1 61 13.6
2005-03-09 14:40:35 51°22.737 3°13.292 30.1 1 64 13.7
2005-03-09 14:41:34 51°22.742 3°13.315 31.7 0.7 61 13.4
2005-03-09 14:42:34 51°22.744 3°13.338 34 0.6 65 13.3
2005-03-09 14:43:34 51°22.745 3°13.36 38.9 0.6 77 13.3
2005-03-09 14:44:35 51°22.748 3°13.382 40.1 0.8 79 13.3
2005-03-09 14:45:34 51°22.748 3°13.404 42.4 1.1 99 13.2
2005-03-09 14:46:34 51°22.749 3°13.425 43.1 0.7 83 13.1
2005-03-09 14:47:34 51°22.748 3°13.445 43.2 0.7 94 13
2005-03-09 14:48:34 51°22.746 3°13.464 44.8 0.7 95 13
2005-03-09 14:49:35 51°22.748 3°13.485 44.1 1.3 81 13
2005-03-09 14:50:34 51°22.757 3°13.512 34.8 1.4 43 12.9
2005-03-09 14:51:35 51°22.778 3°13.538 20.8 1.7 33 12.9
2005-03-09 14:52:34 51°22.805 3°13.558 7.5 1.9 22 13
2005-03-09 14:53:35 51°22.836 3°13.564 350.7 1.8 354 12.7
2005-03-09 14:54:34 51°22.864 3°13.554 331.3 1.6 334 12.7
2005-03-09 14:55:34 51°22.883 3°13.529 308.2 1.4 301 12.7
2005-03-09 14:56:34 51°22.892 3°13.488 283.9 1.8 280 12.7
2005-03-09 14:57:34 51°22.887 3°13.433 263.3 2.3 255 12.8
2005-03-09 14:58:35 51°22.867 3°13.382 230.8 2.2 214 12.7
2005-03-09 14:59:34 51°22.831 3°13.369 181.4 2.5 177 12.9
2005-03-09 15:00:34 51°22.767 3°13.311 231.4 7.9 233 12.9
2005-03-09 15:01:35 51°22.684 3°13.031 249.8 13 247 13.7
2005-03-09 15:02:36 51°22.603 3°12.692 252.1 13.5 249 14.5
2005-03-09 15:03:35 51°22.526 3°12.362 251.6 13.5 249 15.1
2005-03-09 15:04:35 51°22.445 3°12.024 251.7 13.7 249 15.7
2005-03-09 15:05:35 51°22.36 3°11.683 251.2 13.9 246 16.5
2005-03-09 15:06:35 51°22.277 3°11.33 254.1 14.3 251 17
2005-03-09 15:07:35 51°22.205 3°10.969 251.1 13.9 251 18.2
2005-03-09 15:08:35 51°22.125 3°10.621 251.7 14.1 249 17
2005-03-09 15:09:36 51°22.04 3°10.263 252.8 14.2 250 15.4
2005-03-09 15:10:35 51°21.947 3°9.931 247.8 13.8 245 14.4
2005-03-09 15:11:35 51°21.847 3°9.595 249 13.8 247 13.1
2005-03-09 15:12:35 51°21.752 3°9.265 248.3 13.7 245 12.3
2005-03-09 15:13:36 51°21.65 3°8.929 245.3 13.8 241 11.2
2005-03-09 15:14:36 51°21.526 3°8.624 238.1 13.7 230 10.4
2005-03-09 15:15:36 51°21.392 3°8.329 236.2 13.8 233 9.7
2005-03-09 15:16:35 51°21.261 3°8.036 237.1 13.6 234 9.1
2005-03-09 15:17:35 51°21.123 3°7.739 234.2 14 230 8.7
2005-03-09 15:18:36 51°20.971 3°7.452 232.5 14 229 8.4
2005-03-09 15:19:35 51°20.82 3°7.181 231.2 13.3 227 8.1
2005-03-09 15:20:35 51°20.67 3°6.914 229.1 13.7 228 8.2
2005-03-09 15:21:35 51°20.514 3°6.654 224.7 13.4 225 8.1
2005-03-09 15:22:35 51°20.346 3°6.411 224.7 13.7 222 8.2
2005-03-09 15:23:36 51°20.181 3°6.153 227.5 13.7 225 8.4
2005-03-09 15:24:35 51°20.022 3°5.903 225.7 14 226 8.3
2005-03-09 15:25:35 51°19.86 3°5.647 225.9 13.7 224 8.3
2005-03-09 15:26:35 51°19.712 3°5.367 239.3 13.8 236 8.2
2005-03-09 15:27:36 51°19.572 3°5.066 236.2 13.9 236 8.3
2005-03-09 15:28:35 51°19.441 3°4.767 236 13.8 233 8.4
2005-03-09 15:29:35 51°19.308 3°4.467 236.3 14.2 240 8.2
2005-03-09 15:30:36 51°19.176 3°4.159 237.6 13.9 235 8.3
2005-03-09 15:31:35 51°19.054 3°3.858 238.9 13.5 239 8.1
2005-03-09 15:32:36 51°18.927 3°3.552 239.4 13.5 236 8.3
2005-03-09 15:33:35 51°18.801 3°3.254 236.7 13.9 233 8.2
2005-03-09 15:34:35 51°18.678 3°2.949 239.2 13.9 240 8.7
2005-03-09 15:35:35 51°18.554 3°2.642 240.5 13.7 238 8.9
2005-03-09 15:36:35 51°18.428 3°2.335 239.2 13.8 240 8.6
2005-03-09 15:37:35 51°18.303 3°2.025 238.2 13.8 238 8.8
2005-03-09 15:38:35 51°18.18 3°1.719 240.6 13.7 239 9
2005-03-09 15:39:35 51°18.058 3°1.407 239.5 13.9 236 9.3
2005-03-09 15:40:35 51°17.933 3°1.098 239.9 13.9 235 9
2005-03-09 15:41:35 51°17.806 3°0.791 238 13.8 237 9.2
2005-03-09 15:42:35 51°17.682 3°0.48 240.2 14.2 238 9.3
2005-03-09 15:43:36 51°17.555 3°0.161 239.6 13.9 237 9.3
2005-03-09 15:44:35 51°17.432 2°59.854 239.8 13.7 237 9.4
2005-03-09 15:45:35 51°17.307 2°59.543 239.9 13.7 236 9.4
2005-03-09 15:46:36 51°17.182 2°59.226 240.9 14.2 241 9.3
2005-03-09 15:47:35 51°17.075 2°58.905 243.4 13.9 244 9.3
2005-03-09 15:48:35 51°16.966 2°58.575 242.4 13.8 239 9.3
2005-03-09 15:49:36 51°16.854 2°58.247 243.9 14.1 242 9.2
2005-03-09 15:50:35 51°16.747 2°57.927 244.5 14 241 9.4
2005-03-09 15:51:35 51°16.64 2°57.596 244.3 14 244 9.5
2005-03-09 15:52:35 51°16.534 2°57.273 244.5 13.7 247 9.5
2005-03-09 15:53:35 51°16.422 2°56.952 240.4 13.9 240 9.5
2005-03-09 15:54:35 51°16.294 2°56.65 237.1 13.8 240 9.4
2005-03-09 15:55:36 51°16.161 2°56.343 238.4 13.8 236 9.3
2005-03-09 15:56:35 51°16.031 2°56.046 237.2 13.8 232 9.2
2005-03-09 15:57:35 51°15.9 2°55.746 237.3 13.8 237 9.1
2005-03-09 15:58:35 51°15.747 2°55.478 222.8 13.7 220 8.9
2005-03-09 15:59:36 51°15.549 2°55.292 208.7 13.4 209 8.6
2005-03-09 16:00:35 51°15.348 2°55.134 206 12.8 205 8
2005-03-09 16:01:35 51°15.14 2°54.991 201.7 14 201 7.9
2005-03-09 16:02:35 51°14.92 2°54.88 197.9 14.8 197 8.9
2005-03-09 16:03:34 51°14.7 2°54.823 179.4 13.4 180 9.3
2005-03-09 16:04:35 51°14.496 2°54.912 152 12.6 153 9.6
2005-03-09 16:05:35 51°14.347 2°55.122 131 11.7 129 9.6
2005-03-09 16:06:36 51°14.21 2°55.335 143.1 10.6 142 10
2005-03-09 16:07:34 51°14.088 2°55.44 157.6 7.8 155 9.1
2005-03-09 16:08:35 51°13.971 2°55.526 157.9 7.7 156 9.4
2005-03-09 16:09:35 51°13.852 2°55.617 155.6 8 153 9.7
2005-03-09 16:10:35 51°13.746 2°55.741 140 7.6 137 9.6
2005-03-09 16:11:35 51°13.676 2°55.876 127.7 6 125 8.8
2005-03-09 16:12:35 51°13.634 2°55.983 122.9 4.1 119 9.2
2005-03-09 16:13:37 51°13.611 2°56.051 122.4 2.5 118 -999
2005-03-09 16:14:36 51°13.598 2°56.096 122.6 1.1 122 -999
2005-03-09 16:15:36 51°13.594 2°56.105 127.1 0.2 67 -999
2005-03-09 16:16:36 51°13.594 2°56.103 129.1 0.2 62 -999